First Clarity — A8RM8 — position and weather

sailwx.info

Track history (hours):
 
Tides and Currents Weather Stations Pressure Air Temp Water Temp Dewpoint Dewpoint Depression Visibility Wind Speed Wind Dir Waves Ship Positions

First Clarity

Last reported at 2016-Sep-29 13:14 UTC. Time now 2016-Dec-04 20:27 UTC.
Position N 35°03' E 139°37'.
Warning: this ship's position is months out of date.

Length 104 m; draft 5.8 m.

Type: Cargo ship. MMSI: 636014129.

Date/timePositionNaut miles runAvg speedWind from/ knotsBaromVisibWave heightAir tempDewpointWater temp
2016-Sep-29 13:14N 35°03' E 139°37'22 4.6
2016-Sep-29 08:33N 35°24' E 139°38'0 0.0
2016-Sep-29 07:33N 35°24' E 139°38'0 0.0
2016-Sep-29 00:33N 35°24' E 139°38'1 0.4
2016-Sep-28 21:31N 35°23' E 139°40'0 0.0
2016-Sep-28 19:31N 35°23' E 139°39'0 0.0
2016-Sep-28 16:31N 35°23' E 139°39'0 0.0
2016-Sep-28 15:31N 35°23' E 139°39'0 0.0
2016-Sep-28 12:31N 35°23' E 139°40'0 0.1
2016-Sep-28 08:33N 35°23' E 139°40'76 8.4
2016-Sep-27 23:30N 34°30' E 138°35'  
2016-Sep-19 19:21N 34°36' E 134°53'6 7.4
2016-Sep-19 18:33N 34°38' E 135°00'13 6.3
2016-Sep-19 16:33N 34°25' E 135°02'18 8.9
2016-Sep-19 14:34N 34°07' E 134°59'  
Track history (hours):
 
Tides and Currents Weather Stations Pressure Air Temp Water Temp Dewpoint Dewpoint Depression Visibility Wind Speed Wind Dir Waves Ship Positions

First Clarity

Last reported at 2016-Sep-29 13:14 UTC. Time now 2016-Dec-04 20:27 UTC.
Position N 35°03' E 139°37'.
Warning: this ship's position is months out of date.

Length 104 m; draft 5.8 m.

Type: Cargo ship. MMSI: 636014129.

Date/timePositionNaut miles runAvg speedWind from/ knotsBaromVisibWave heightAir tempDewpointWater temp
2016-Sep-29 13:14N 35°03' E 139°37'22 4.6
2016-Sep-29 08:33N 35°24' E 139°38'0 0.0
2016-Sep-29 07:33N 35°24' E 139°38'0 0.0
2016-Sep-29 00:33N 35°24' E 139°38'1 0.4
2016-Sep-28 21:31N 35°23' E 139°40'0 0.0
2016-Sep-28 19:31N 35°23' E 139°39'0 0.0
2016-Sep-28 16:31N 35°23' E 139°39'0 0.0
2016-Sep-28 15:31N 35°23' E 139°39'0 0.0
2016-Sep-28 12:31N 35°23' E 139°40'0 0.1
2016-Sep-28 08:33N 35°23' E 139°40'76 8.4
2016-Sep-27 23:30N 34°30' E 138°35'  
2016-Sep-19 19:21N 34°36' E 134°53'6 7.4
2016-Sep-19 18:33N 34°38' E 135°00'13 6.3
2016-Sep-19 16:33N 34°25' E 135°02'18 8.9
2016-Sep-19 14:34N 34°07' E 134°59'  

Dump ship's entire track history